createdAt,value
2018-05-15T00:02:17.776Z,15.20
2018-05-15T00:04:45.843Z,16.20
2018-05-15T00:07:13.714Z,16.63
2018-05-15T00:09:42.004Z,16.97
2018-05-15T00:12:10.277Z,16.17
2018-05-15T00:14:38.743Z,15.93
2018-05-15T00:17:06.918Z,16.13
2018-05-15T00:19:35.224Z,15.20
2018-05-15T00:22:04.497Z,16.40
2018-05-15T00:24:32.366Z,16.00
2018-05-15T00:27:00.600Z,16.50
2018-05-15T00:29:28.713Z,16.10
2018-05-15T00:31:56.881Z,17.10
2018-05-15T00:34:25.344Z,15.27
2018-05-15T00:36:53.433Z,16.37
2018-05-15T00:39:21.497Z,15.60
2018-05-15T00:41:49.879Z,15.43
2018-05-15T00:44:18.281Z,17.33
2018-05-15T00:46:46.704Z,15.73
2018-05-15T00:49:15.021Z,15.90
2018-05-15T00:51:43.179Z,16.20
2018-05-15T00:54:11.565Z,16.27
2018-05-15T00:56:39.941Z,16.60
2018-05-15T00:59:08.220Z,17.00
2018-05-15T01:01:36.505Z,16.30
2018-05-15T01:04:05.459Z,17.03
2018-05-15T01:06:34.240Z,16.80
2018-05-15T01:09:02.445Z,16.43
2018-05-15T01:11:30.692Z,17.60
2018-05-15T01:13:59.611Z,16.13
2018-05-15T01:16:27.481Z,16.70
2018-05-15T01:18:55.544Z,16.30
2018-05-15T01:21:23.928Z,17.30
2018-05-15T01:23:52.517Z,16.30
2018-05-15T01:26:20.587Z,16.30
2018-05-15T01:28:49.480Z,17.00
2018-05-15T01:31:17.763Z,17.63
2018-05-15T01:33:45.928Z,16.63
2018-05-15T01:36:14.099Z,16.77
2018-05-15T01:38:42.176Z,17.43
2018-05-15T01:41:10.341Z,17.93
2018-05-15T01:43:38.595Z,16.30
2018-05-15T01:46:07.178Z,16.40
2018-05-15T01:48:35.391Z,16.07
2018-05-15T01:51:03.873Z,16.30
2018-05-15T01:53:32.234Z,15.30
2018-05-15T01:56:00.469Z,16.53
2018-05-15T01:58:28.375Z,15.87
2018-05-15T02:00:56.851Z,15.73
2018-05-15T02:03:25.006Z,15.70
2018-05-15T02:05:53.813Z,16.27
2018-05-15T02:08:22.166Z,16.00
2018-05-15T02:10:50.060Z,15.50
2018-05-15T02:13:18.422Z,15.87
2018-05-15T02:15:46.738Z,16.47
2018-05-15T02:18:15.705Z,16.90
2018-05-15T02:20:43.878Z,16.30
2018-05-15T02:23:11.907Z,16.30
2018-05-15T02:25:40.341Z,15.40
2018-05-15T02:28:08.737Z,16.43
2018-05-15T02:30:37.714Z,15.40
2018-05-15T02:33:06.695Z,14.50
2018-05-15T02:35:34.828Z,15.50
2018-05-15T02:38:03.036Z,14.83
2018-05-15T02:40:31.215Z,14.70
2018-05-15T02:42:59.461Z,16.50
2018-05-15T02:45:27.633Z,16.93
2018-05-15T02:47:56.165Z,16.80
2018-05-15T02:50:25.340Z,15.10
2018-05-15T02:52:53.717Z,15.67
2018-05-15T02:55:21.580Z,15.50
2018-05-15T02:57:49.449Z,15.77
2018-05-15T03:00:17.622Z,14.50
2018-05-15T03:02:46.387Z,14.77
2018-05-15T03:05:15.406Z,15.53
2018-05-15T03:07:43.780Z,15.50
2018-05-15T03:10:11.967Z,14.53
2018-05-15T03:12:40.134Z,14.87
2018-05-15T03:15:08.606Z,15.40
2018-05-15T03:17:36.782Z,16.43
2018-05-15T03:20:04.850Z,16.60
2018-05-15T03:22:32.998Z,16.50
2018-05-15T03:25:01.250Z,16.43
2018-05-15T03:27:29.299Z,14.73
2018-05-15T03:29:58.468Z,16.63
2018-05-15T03:32:26.749Z,15.50
2018-05-15T03:34:55.117Z,16.40
2018-05-15T03:37:23.479Z,16.50
2018-05-15T03:39:51.678Z,16.40
2018-05-15T03:42:19.961Z,17.63
2018-05-15T03:44:48.122Z,16.30
2018-05-15T03:47:16.299Z,16.27
2018-05-15T03:49:44.157Z,16.37
2018-05-15T03:52:12.711Z,17.73
2018-05-15T03:54:41.237Z,15.70
2018-05-15T03:57:09.501Z,16.60
2018-05-15T03:59:38.576Z,17.00
2018-05-15T04:05:22.676Z,15.73
2018-05-15T04:08:02.631Z,16.30
2018-05-15T04:10:31.925Z,16.30
2018-05-15T04:13:00.562Z,18.20
2018-05-15T04:15:29.172Z,18.30
2018-05-15T04:17:57.732Z,18.80
2018-05-15T04:20:25.834Z,18.60
2018-05-15T04:22:54.117Z,19.90
2018-05-15T04:25:22.281Z,19.30
2018-05-15T04:27:50.572Z,18.60
2018-05-15T04:30:18.736Z,20.43
2018-05-15T04:32:48.131Z,18.70
2018-05-15T04:35:16.511Z,18.80
2018-05-15T04:37:45.102Z,18.63
2018-05-15T04:40:14.521Z,17.47
2018-05-15T04:42:43.653Z,18.80
2018-05-15T04:45:11.900Z,18.50
2018-05-15T04:47:41.180Z,18.87
2018-05-15T04:50:11.062Z,19.37
2018-05-15T04:52:39.644Z,18.40
2018-05-15T04:55:07.867Z,18.87
2018-05-15T04:57:37.057Z,18.80
2018-05-15T05:00:05.562Z,20.33
2018-05-15T05:02:33.925Z,20.70
2018-05-15T05:05:03.412Z,19.10
2018-05-15T05:07:31.592Z,20.17
2018-05-15T05:10:00.797Z,18.50
2018-05-15T05:12:29.806Z,21.30
2018-05-15T05:14:58.879Z,20.37
2018-05-15T05:17:27.903Z,20.03
2018-05-15T05:19:56.955Z,18.33
2018-05-15T05:22:25.454Z,20.03
2018-05-15T05:24:54.713Z,19.50
2018-05-15T05:27:23.228Z,20.07
2018-05-15T05:29:53.125Z,19.63
2018-05-15T05:32:22.436Z,19.60
2018-05-15T05:34:50.799Z,20.83
2018-05-15T05:37:21.059Z,20.97
2018-05-15T05:39:49.513Z,20.77
2018-05-15T05:42:18.014Z,21.17
2018-05-15T05:44:46.759Z,21.23
2018-05-15T05:47:15.265Z,21.50
2018-05-15T05:49:44.555Z,21.13
2018-05-15T05:52:12.933Z,22.00
2018-05-15T05:54:41.383Z,21.27
2018-05-15T05:57:09.810Z,20.00
2018-05-15T05:59:39.326Z,20.77
2018-05-15T06:02:08.880Z,21.03
2018-05-15T06:04:37.499Z,21.10
2018-05-15T06:07:07.264Z,22.13
2018-05-15T06:09:35.485Z,21.97
2018-05-15T06:12:05.766Z,19.70
2018-05-15T06:14:34.298Z,18.03
2018-05-15T06:17:03.684Z,19.53
2018-05-15T06:19:32.419Z,19.73
2018-05-15T06:22:00.821Z,19.53
2018-05-15T06:24:29.300Z,20.70
2018-05-15T06:26:57.546Z,21.20
2018-05-15T06:29:26.003Z,20.53
2018-05-15T06:31:56.049Z,21.37
2018-05-15T06:34:24.361Z,22.37
2018-05-15T06:36:52.746Z,21.80
2018-05-15T06:39:21.426Z,19.57
2018-05-15T06:41:49.594Z,20.57
2018-05-15T06:44:17.801Z,20.57
2018-05-15T06:46:47.754Z,20.07
2018-05-15T06:49:16.748Z,20.53
2018-05-15T06:51:45.088Z,21.80
2018-05-15T06:54:14.386Z,20.60
2018-05-15T06:56:43.571Z,22.90
2018-05-15T06:59:12.160Z,20.87
2018-05-15T07:01:41.099Z,20.07
2018-05-15T07:04:10.045Z,20.40
2018-05-15T07:06:39.389Z,20.10
2018-05-15T07:09:08.318Z,19.10
2018-05-15T07:11:36.291Z,20.73
2018-05-15T07:14:05.282Z,20.20
2018-05-15T07:16:33.796Z,19.90
2018-05-15T07:19:02.577Z,19.00
2018-05-15T07:21:31.889Z,20.70
2018-05-15T07:24:00.421Z,19.90
2018-05-15T07:26:29.020Z,19.83
2018-05-15T07:28:57.290Z,19.40
2018-05-15T07:31:25.894Z,17.80
2018-05-15T07:33:55.183Z,18.77
2018-05-15T07:36:26.454Z,19.97
2018-05-15T07:38:55.230Z,19.80
2018-05-15T07:41:24.060Z,19.47
2018-05-15T07:43:53.298Z,19.77
2018-05-15T07:46:22.369Z,17.73
2018-05-15T07:48:51.019Z,17.00
2018-05-15T07:51:19.479Z,16.47
2018-05-15T07:53:48.797Z,15.70
2018-05-15T07:56:17.281Z,13.83
2018-05-15T07:58:46.029Z,14.40
2018-05-15T08:01:14.509Z,13.63
2018-05-15T08:03:43.080Z,15.70
2018-05-15T08:06:11.563Z,14.23
2018-05-15T08:08:40.162Z,15.50
2018-05-15T08:11:08.427Z,16.30
2018-05-15T08:13:37.262Z,16.13
2018-05-15T08:16:05.992Z,15.37
2018-05-15T08:18:34.392Z,15.90
2018-05-15T08:21:03.178Z,16.77
2018-05-15T08:23:31.661Z,15.73
2018-05-15T08:26:00.436Z,15.73
2018-05-15T08:28:29.123Z,16.13
2018-05-15T08:30:59.217Z,13.97
2018-05-15T08:33:27.630Z,13.97
2018-05-15T08:35:56.723Z,15.40
2018-05-15T08:38:25.429Z,15.50
2018-05-15T08:40:54.393Z,17.73
2018-05-15T08:43:22.991Z,15.50
2018-05-15T08:45:52.213Z,16.40
2018-05-15T08:48:20.788Z,16.43
2018-05-15T08:50:50.324Z,14.33
2018-05-15T08:53:18.466Z,16.80
2018-05-15T08:55:48.566Z,15.40
2018-05-15T08:58:18.150Z,16.00
2018-05-15T09:00:46.647Z,15.93
2018-05-15T09:03:15.427Z,15.07
2018-05-15T09:05:44.125Z,15.63
2018-05-15T09:08:13.441Z,14.90
2018-05-15T09:10:42.843Z,15.00
2018-05-15T09:13:12.025Z,14.43
2018-05-15T09:15:41.336Z,15.13
2018-05-15T09:18:10.788Z,15.63
2018-05-15T09:20:39.408Z,15.13
2018-05-15T09:23:07.766Z,16.27
2018-05-15T09:25:36.479Z,17.53
2018-05-15T09:28:06.664Z,17.10
2018-05-15T09:30:34.942Z,17.17
2018-05-15T09:33:03.474Z,15.20
2018-05-15T09:35:32.969Z,16.83
2018-05-15T09:38:01.951Z,15.23
2018-05-15T09:40:31.249Z,14.60
2018-05-15T09:42:59.705Z,16.57
2018-05-15T09:45:28.424Z,16.67
2018-05-15T09:47:57.696Z,15.07
2018-05-15T09:50:26.090Z,14.30
2018-05-15T09:52:54.585Z,13.47
2018-05-15T09:55:23.854Z,13.30
2018-05-15T09:57:52.565Z,13.30
2018-05-15T10:00:27.814Z,14.13
2018-05-15T10:02:57.185Z,13.17
2018-05-15T10:05:25.770Z,12.90
2018-05-15T10:07:54.567Z,13.10
2018-05-15T10:10:24.703Z,12.20
2018-05-15T10:12:53.792Z,12.00
2018-05-15T10:15:22.959Z,12.97
2018-05-15T10:17:51.898Z,46.77
2018-05-15T10:20:21.672Z,14.17
2018-05-15T10:22:50.444Z,14.03
2018-05-15T10:25:18.855Z,13.73
2018-05-15T10:27:48.112Z,13.47
2018-05-15T10:30:16.935Z,13.77
2018-05-15T10:32:45.227Z,12.90
2018-05-15T10:35:14.817Z,13.90
2018-05-15T10:37:42.925Z,13.87
2018-05-15T10:40:11.553Z,13.80
2018-05-15T10:42:39.935Z,12.63
2018-05-15T10:45:08.549Z,13.03
2018-05-15T10:47:37.642Z,13.50
2018-05-15T10:50:07.445Z,13.70
2018-05-15T10:52:36.993Z,12.80
2018-05-15T10:55:05.622Z,13.47
2018-05-15T10:57:34.115Z,12.93
2018-05-15T11:00:02.398Z,13.80
2018-05-15T11:02:30.774Z,12.10
2018-05-15T11:05:00.155Z,11.77
2018-05-15T11:07:29.468Z,11.30
2018-05-15T11:09:57.863Z,11.07
2018-05-15T11:12:27.358Z,12.20
2018-05-15T11:14:56.353Z,10.90
2018-05-15T11:17:25.736Z,12.57
2018-05-15T11:20:06.321Z,11.97
2018-05-15T11:22:47.364Z,11.80
2018-05-15T11:25:15.778Z,12.40
2018-05-15T11:27:45.235Z,12.50
2018-05-15T11:30:14.010Z,13.70
2018-05-15T11:32:42.487Z,11.70
2018-05-15T11:35:10.798Z,11.30
2018-05-15T11:37:40.092Z,11.53
2018-05-15T11:40:08.485Z,11.27
2018-05-15T11:42:38.555Z,11.27
2018-05-15T11:45:06.578Z,11.40
2018-05-15T11:47:36.693Z,11.17
2018-05-15T11:50:06.637Z,11.50
2018-05-15T11:52:34.667Z,9.70
2018-05-15T11:55:03.070Z,11.03
2018-05-15T11:57:32.577Z,11.50
2018-05-15T12:00:02.146Z,11.50
2018-05-15T12:02:30.965Z,15.60
2018-05-15T12:04:59.438Z,12.20
2018-05-15T12:07:28.243Z,11.80
2018-05-15T12:09:57.515Z,12.70
2018-05-15T12:12:26.135Z,12.67
2018-05-15T12:14:55.448Z,13.60
2018-05-15T12:17:25.018Z,12.87
2018-05-15T12:19:53.804Z,12.80
2018-05-15T12:22:21.970Z,12.20
2018-05-15T12:24:50.767Z,12.30
2018-05-15T12:27:19.387Z,12.60
2018-05-15T12:29:47.917Z,12.57
2018-05-15T12:32:16.398Z,12.07
2018-05-15T12:34:45.392Z,11.70
2018-05-15T12:37:13.792Z,13.23
2018-05-15T12:39:42.567Z,13.90
2018-05-15T12:42:11.037Z,12.77
2018-05-15T12:44:40.146Z,12.07
2018-05-15T12:47:08.864Z,11.13
2018-05-15T12:49:37.841Z,12.80
2018-05-15T12:52:07.125Z,12.63
2018-05-15T12:54:35.507Z,12.70
2018-05-15T12:57:04.606Z,13.00
2018-05-15T12:59:34.012Z,12.90
2018-05-15T13:02:05.170Z,13.43
2018-05-15T13:04:34.432Z,11.93
2018-05-15T13:07:02.925Z,14.03
2018-05-15T13:09:31.296Z,13.10
2018-05-15T13:11:59.793Z,12.50
2018-05-15T13:14:30.357Z,13.27
2018-05-15T13:16:59.060Z,14.00
2018-05-15T13:19:27.681Z,19.83
2018-05-15T13:21:57.453Z,15.13
2018-05-15T13:24:26.216Z,15.30
2018-05-15T13:26:55.597Z,15.90
2018-05-15T13:29:25.324Z,16.20
2018-05-15T13:31:53.989Z,15.67
2018-05-15T13:34:23.439Z,16.23
2018-05-15T13:36:52.265Z,16.63
2018-05-15T13:39:20.975Z,15.17
2018-05-15T13:41:50.454Z,15.00
2018-05-15T13:44:20.185Z,15.37
2018-05-15T13:46:49.760Z,14.20
2018-05-15T13:49:18.160Z,15.07
2018-05-15T13:51:47.543Z,16.03
2018-05-15T13:54:16.642Z,16.53
2018-05-15T13:56:46.869Z,15.67
2018-05-15T13:59:16.049Z,15.03
2018-05-15T14:01:44.963Z,15.70
2018-05-15T14:04:13.334Z,13.97
2018-05-15T14:06:42.520Z,13.40
2018-05-15T14:09:11.307Z,14.20
2018-05-15T14:11:39.919Z,14.90
2018-05-15T14:14:09.601Z,15.80
2018-05-15T14:16:37.989Z,16.50
2018-05-15T14:19:06.410Z,17.30
2018-05-15T14:21:34.858Z,17.90
2018-05-15T14:24:03.772Z,16.00
2018-05-15T14:26:32.677Z,17.17
2018-05-15T14:29:01.126Z,14.30
2018-05-15T14:31:30.763Z,14.90
2018-05-15T14:33:59.285Z,14.87
2018-05-15T14:36:27.976Z,15.20
2018-05-15T14:38:56.279Z,14.37
2018-05-15T14:41:37.501Z,15.67
2018-05-15T14:44:06.849Z,16.10
2018-05-15T14:46:35.744Z,18.70
2018-05-15T14:49:05.028Z,18.23
2018-05-15T14:51:33.521Z,18.23
2018-05-15T14:54:08.057Z,17.53
2018-05-15T14:56:36.508Z,15.60
2018-05-15T14:59:04.614Z,16.97
2018-05-15T15:01:34.288Z,17.23
2018-05-15T15:04:02.687Z,16.77
2018-05-15T15:06:32.359Z,16.67
2018-05-15T15:09:01.570Z,23.37
2018-05-15T15:11:30.111Z,16.47
2018-05-15T15:13:58.751Z,15.10
2018-05-15T15:16:27.168Z,15.23
2018-05-15T15:18:57.791Z,15.33
2018-05-15T15:21:26.142Z,14.10
2018-05-15T15:23:55.575Z,15.97
2018-05-15T15:26:25.711Z,14.63
2018-05-15T15:28:54.959Z,15.40
2018-05-15T15:31:25.838Z,15.00
2018-05-15T15:33:54.782Z,16.07
2018-05-15T15:36:22.959Z,13.60
2018-05-15T15:38:52.687Z,13.20
2018-05-15T15:41:22.687Z,14.60
2018-05-15T15:43:52.000Z,13.97
2018-05-15T15:46:21.068Z,13.00
2018-05-15T15:48:50.191Z,13.60
2018-05-15T15:51:19.438Z,13.20
2018-05-15T15:53:47.550Z,13.20
2018-05-15T15:56:16.846Z,14.10
2018-05-15T15:58:45.412Z,13.10
2018-05-15T16:01:14.043Z,13.43
2018-05-15T16:03:42.750Z,13.90
2018-05-15T16:06:11.087Z,13.43
2018-05-15T16:08:40.198Z,14.60
2018-05-15T16:11:09.359Z,13.90
2018-05-15T16:13:38.048Z,13.63
2018-05-15T16:16:06.323Z,14.17
2018-05-15T16:18:34.935Z,14.50
2018-05-15T16:21:04.526Z,13.60
2018-05-15T16:23:32.958Z,12.80
2018-05-15T16:26:01.359Z,13.27
2018-05-15T16:28:30.412Z,12.90
2018-05-15T16:30:59.071Z,14.30
2018-05-15T16:33:28.463Z,12.93
2018-05-15T16:35:56.727Z,13.13
2018-05-15T16:38:25.311Z,11.90
2018-05-15T16:40:54.438Z,11.63
2018-05-15T16:43:24.124Z,11.70
2018-05-15T16:45:53.470Z,12.47
2018-05-15T16:48:23.787Z,13.63
2018-05-15T16:50:53.503Z,12.93
2018-05-15T16:53:23.256Z,12.10
2018-05-15T16:55:52.366Z,12.27
2018-05-15T16:58:21.160Z,12.43
2018-05-15T17:00:51.068Z,12.17
2018-05-15T17:03:20.199Z,13.43
2018-05-15T17:05:48.639Z,11.93
2018-05-15T17:08:17.155Z,13.10
2018-05-15T17:10:46.727Z,12.50
2018-05-15T17:13:16.364Z,12.83
2018-05-15T17:15:45.278Z,11.50
2018-05-15T17:18:13.582Z,12.17
2018-05-15T17:20:42.079Z,14.50
2018-05-15T17:23:10.766Z,13.53
2018-05-15T17:25:39.229Z,14.00
2018-05-15T17:28:07.646Z,12.53
2018-05-15T17:30:37.327Z,14.47
2018-05-15T17:33:07.227Z,12.53
2018-05-15T17:35:35.630Z,13.00
2018-05-15T17:38:04.206Z,14.77
2018-05-15T17:40:32.719Z,15.10
2018-05-15T17:43:01.087Z,13.77
2018-05-15T17:45:32.430Z,13.57
2018-05-15T17:48:02.143Z,14.77
2018-05-15T17:50:31.309Z,14.30
2018-05-15T17:52:59.730Z,13.47
2018-05-15T17:55:29.207Z,16.07
2018-05-15T17:57:57.846Z,16.27
2018-05-15T18:00:26.287Z,14.50
2018-05-15T18:02:55.773Z,15.00
2018-05-15T18:05:24.142Z,14.63
2018-05-15T18:07:52.479Z,16.30
2018-05-15T18:10:21.022Z,14.23
2018-05-15T18:12:53.487Z,15.37
2018-05-15T18:15:22.359Z,15.57
2018-05-15T18:17:50.750Z,15.80
2018-05-15T18:20:20.801Z,15.77
2018-05-15T18:22:49.405Z,14.70
2018-05-15T18:25:17.926Z,16.93
2018-05-15T18:27:47.071Z,15.40
2018-05-15T18:30:15.425Z,15.50
2018-05-15T18:32:44.814Z,16.13
2018-05-15T18:35:13.413Z,16.47
2018-05-15T18:37:43.326Z,16.27
2018-05-15T18:40:12.416Z,15.30
2018-05-15T18:42:40.801Z,17.13
2018-05-15T18:45:10.078Z,16.20
2018-05-15T18:47:39.503Z,16.03
2018-05-15T18:50:09.255Z,17.23
2018-05-15T18:52:39.118Z,16.10
2018-05-15T18:55:07.793Z,18.30
2018-05-15T18:57:36.494Z,17.70
2018-05-15T19:00:07.439Z,17.70
2018-05-15T19:02:35.806Z,18.37
2018-05-15T19:05:06.350Z,18.20
2018-05-15T19:07:34.728Z,17.20
2018-05-15T19:10:04.143Z,18.67
2018-05-15T19:12:33.088Z,19.50
2018-05-15T19:15:01.630Z,20.03
2018-05-15T19:17:31.726Z,18.40
2018-05-15T19:20:04.804Z,19.37
2018-05-15T19:22:33.367Z,18.87
2018-05-15T19:25:01.663Z,18.50
2018-05-15T19:27:31.071Z,20.53
2018-05-15T19:30:00.166Z,19.07
2018-05-15T19:32:35.183Z,19.93
2018-05-15T19:35:08.527Z,19.40
2018-05-15T19:40:16.271Z,19.20
2018-05-15T19:42:44.878Z,20.30
2018-05-15T19:45:14.641Z,20.00
2018-05-15T19:47:44.079Z,19.87
2018-05-15T19:50:14.463Z,21.53
2018-05-15T19:52:43.568Z,20.40
2018-05-15T19:55:11.895Z,20.87
2018-05-15T19:57:40.963Z,21.27
2018-05-15T20:00:11.047Z,22.40
2018-05-15T20:02:41.550Z,22.03
2018-05-15T20:05:10.879Z,20.73
2018-05-15T20:07:39.311Z,22.07
2018-05-15T20:10:08.687Z,21.80
2018-05-15T20:12:38.800Z,20.97
2018-05-15T20:15:08.450Z,20.37
2018-05-15T20:17:37.839Z,21.63
2018-05-15T20:20:10.799Z,21.87
2018-05-15T20:22:39.527Z,20.00
2018-05-15T20:25:08.799Z,20.53
2018-05-15T20:27:37.391Z,21.27
2018-05-15T20:30:06.591Z,20.80
2018-05-15T20:32:36.799Z,21.70
2018-05-15T20:35:06.397Z,19.90
2018-05-15T20:37:35.095Z,20.73
2018-05-15T20:40:03.280Z,20.10
2018-05-15T20:42:32.926Z,20.30
2018-05-15T20:45:01.487Z,20.33
2018-05-15T20:47:31.167Z,21.83
2018-05-15T20:49:59.711Z,21.07
2018-05-15T20:52:28.039Z,21.07
2018-05-15T20:54:56.398Z,20.63
2018-05-15T20:57:24.904Z,20.57
2018-05-15T20:59:53.807Z,20.67
2018-05-15T21:02:22.863Z,20.57
2018-05-15T21:04:51.172Z,18.17
2018-05-15T21:07:20.299Z,19.50
2018-05-15T21:09:49.045Z,18.20
2018-05-15T21:12:18.241Z,17.37
2018-05-15T21:14:47.702Z,19.37
2018-05-15T21:17:16.241Z,19.40
2018-05-15T21:19:47.271Z,21.00
2018-05-15T21:22:16.061Z,21.43
2018-05-15T21:24:45.430Z,22.73
2018-05-15T21:27:14.328Z,21.53
2018-05-15T21:29:42.810Z,21.73
2018-05-15T21:32:11.106Z,22.40
2018-05-15T21:34:41.124Z,21.73
2018-05-15T21:37:10.128Z,22.60
2018-05-15T21:39:39.263Z,22.40
2018-05-15T21:42:07.685Z,24.00
2018-05-15T21:44:35.856Z,22.50
2018-05-15T21:47:04.746Z,25.03
2018-05-15T21:49:32.793Z,23.00
2018-05-15T21:52:01.096Z,24.53
2018-05-15T21:54:29.563Z,25.37
2018-05-15T21:56:58.443Z,25.40
2018-05-15T21:59:27.043Z,27.40
2018-05-15T22:01:55.403Z,24.97
2018-05-15T22:04:24.007Z,25.37
2018-05-15T22:06:52.806Z,24.00
2018-05-15T22:09:22.539Z,27.40
2018-05-15T22:12:02.338Z,25.53
2018-05-15T22:14:42.294Z,23.30
2018-05-15T22:17:22.359Z,24.17
2018-05-15T22:20:02.180Z,25.20
2018-05-15T22:22:30.573Z,25.40
2018-05-15T22:25:00.691Z,24.97
2018-05-15T22:27:28.676Z,25.60
2018-05-15T22:29:58.774Z,21.63
2018-05-15T22:32:27.196Z,23.20
2018-05-15T22:34:55.665Z,24.57
2018-05-15T22:37:26.061Z,25.30
2018-05-15T22:39:54.956Z,22.20
2018-05-15T22:42:27.028Z,22.57
2018-05-15T22:44:56.182Z,22.90
2018-05-15T22:47:25.518Z,22.57
2018-05-15T22:49:53.678Z,21.73
2018-05-15T22:52:22.564Z,25.90
2018-05-15T22:54:50.964Z,22.33
2018-05-15T22:57:19.453Z,22.60
2018-05-15T22:59:49.339Z,24.50
2018-05-15T23:02:17.224Z,23.37
2018-05-15T23:04:45.585Z,22.50
2018-05-15T23:07:14.149Z,24.17
2018-05-15T23:09:42.135Z,23.07
2018-05-15T23:12:10.713Z,23.50
2018-05-15T23:14:39.017Z,22.50
2018-05-15T23:17:09.125Z,23.17
2018-05-15T23:19:37.374Z,25.13
2018-05-15T23:22:05.285Z,23.33
2018-05-15T23:24:34.471Z,24.00
2018-05-15T23:27:02.623Z,23.63
2018-05-15T23:29:30.786Z,23.80
2018-05-15T23:31:59.306Z,23.60
2018-05-15T23:34:28.395Z,24.63
2018-05-15T23:36:56.243Z,26.63
2018-05-15T23:39:24.108Z,24.77
2018-05-15T23:41:54.940Z,25.37
2018-05-15T23:44:24.108Z,24.03
2018-05-15T23:46:52.203Z,24.00
2018-05-15T23:49:20.683Z,24.07
2018-05-15T23:51:48.970Z,25.07
2018-05-15T23:54:17.657Z,22.53
2018-05-15T23:56:46.021Z,25.50
2018-05-15T23:59:14.218Z,24.67
